Toronto — MKKE3 — position and weather

sailwx.info

Track history (hours):
 
Tides and Currents Weather Stations Pressure Air Temp Water Temp Dewpoint Dewpoint Depression Visibility Wind Speed Wind Dir Waves Ship Positions

Toronto

Last reported at 2018-Feb-18 11:37 UTC. Time now 2018-Feb-24 10:13 UTC.
Position S 23°07' W 041°58'.

Length 199 m; draft 9.8 m.

Type: Cargo ship. MMSI: 232664000.

Date/timePositionNaut miles runAvg speedWind from/ knotsBaromVisibWave heightAir tempDewpointWater temp
2018-Feb-18 11:37S 23°07' W 041°58'517.5
2018-Feb-18 11:20S 23°10' W 042°03'1717.3
2018-Feb-18 10:20S 23°15' W 042°21'617.2
2018-Feb-18 10:00S 23°17' W 042°27'1017.0
2018-Feb-18 09:24S 23°21' W 042°37'717.0
2018-Feb-18 08:59S 23°23' W 042°44'1316.7
2018-Feb-18 08:13S 23°28' W 042°57'416.5
2018-Feb-18 08:00S 23°29' W 043°01'816.5
2018-Feb-18 07:30S 23°32' W 043°09'816.4
2018-Feb-18 07:01S 23°35' W 043°17'816.5
2018-Feb-18 06:30S 23°38' W 043°26'816.9
2018-Feb-18 06:01S 23°41' W 043°35'916.9
2018-Feb-18 05:28S 23°43' W 043°44'13216.9
2018-Feb-17 21:39S 24°06' W 046°07'317.7
2018-Feb-17 21:30S 24°05' W 046°09'915.8
2018-Feb-17 20:56S 24°04' W 046°19'4 7.9
2018-Feb-17 20:30S 24°00' W 046°20'3 6.7
2018-Feb-17 20:00S 23°58' W 046°17'1 1.8
2018-Feb-17 19:27S 23°58' W 046°18'0 0.0
2018-Feb-17 18:57S 23°58' W 046°18'0 0.0
2018-Feb-17 18:30S 23°58' W 046°18'0 0.0
2018-Feb-17 18:00S 23°58' W 046°18'0 0.0
2018-Feb-17 17:30S 23°58' W 046°18'0 0.0
2018-Feb-17 17:00S 23°58' W 046°18'0 0.0
2018-Feb-17 16:30S 23°58' W 046°18'0 0.0
2018-Feb-17 16:00S 23°58' W 046°18'0 0.0
2018-Feb-17 15:30S 23°58' W 046°18'0 0.0
2018-Feb-17 15:00S 23°58' W 046°18'0 0.0
2018-Feb-17 14:30S 23°58' W 046°18'0 0.0
2018-Feb-17 14:00S 23°58' W 046°18'0 0.0
2018-Feb-17 13:29S 23°58' W 046°18'0 0.0
2018-Feb-17 12:59S 23°58' W 046°18'0 0.0
2018-Feb-17 12:30S 23°58' W 046°18'0 0.0
2018-Feb-17 12:00S 23°58' W 046°18'0 0.0
2018-Feb-17 11:30S 23°58' W 046°18'0 0.0
2018-Feb-17 11:00S 23°58' W 046°18'0 0.0
2018-Feb-17 10:30S 23°58' W 046°18'0 0.0
2018-Feb-17 10:00S 23°58' W 046°18'0 0.0
2018-Feb-17 09:30S 23°58' W 046°18'0 0.0
2018-Feb-17 09:00S 23°58' W 046°18'0 0.0
2018-Feb-17 08:30S 23°58' W 046°18'0 0.0
2018-Feb-17 08:00S 23°58' W 046°18'0 0.0
2018-Feb-17 07:30S 23°58' W 046°18'0 0.0
2018-Feb-17 07:00S 23°58' W 046°18'0 0.0
2018-Feb-17 06:30S 23°58' W 046°18'0 0.0
2018-Feb-17 05:58S 23°58' W 046°18'0 0.0
2018-Feb-17 05:30S 23°58' W 046°18'0 0.0
2018-Feb-17 05:00S 23°58' W 046°18'0 0.0
2018-Feb-17 04:30S 23°58' W 046°18'0 0.0
2018-Feb-17 04:00S 23°58' W 046°18'0 0.0
2018-Feb-17 03:30S 23°58' W 046°18'0 0.0
2018-Feb-17 03:00S 23°58' W 046°18'0 0.0
2018-Feb-17 02:30S 23°58' W 046°18'0 0.0
2018-Feb-17 01:56S 23°58' W 046°18'2 3.5
2018-Feb-17 01:30S 23°59' W 046°17'4 8.3
2018-Feb-17 01:00S 24°02' W 046°21'3 6.8
2018-Feb-17 00:30S 24°05' W 046°22'  
Track history (hours):
 
Tides and Currents Weather Stations Pressure Air Temp Water Temp Dewpoint Dewpoint Depression Visibility Wind Speed Wind Dir Waves Ship Positions

Toronto

Last reported at 2018-Feb-18 11:37 UTC. Time now 2018-Feb-24 10:13 UTC.
Position S 23°07' W 041°58'.

Length 199 m; draft 9.8 m.

Type: Cargo ship. MMSI: 232664000.

Date/timePositionNaut miles runAvg speedWind from/ knotsBaromVisibWave heightAir tempDewpointWater temp
2018-Feb-18 11:37S 23°07' W 041°58'517.5
2018-Feb-18 11:20S 23°10' W 042°03'1717.3
2018-Feb-18 10:20S 23°15' W 042°21'617.2
2018-Feb-18 10:00S 23°17' W 042°27'1017.0
2018-Feb-18 09:24S 23°21' W 042°37'717.0
2018-Feb-18 08:59S 23°23' W 042°44'1316.7
2018-Feb-18 08:13S 23°28' W 042°57'416.5
2018-Feb-18 08:00S 23°29' W 043°01'816.5
2018-Feb-18 07:30S 23°32' W 043°09'816.4
2018-Feb-18 07:01S 23°35' W 043°17'816.5
2018-Feb-18 06:30S 23°38' W 043°26'816.9
2018-Feb-18 06:01S 23°41' W 043°35'916.9
2018-Feb-18 05:28S 23°43' W 043°44'13216.9
2018-Feb-17 21:39S 24°06' W 046°07'317.7
2018-Feb-17 21:30S 24°05' W 046°09'915.8
2018-Feb-17 20:56S 24°04' W 046°19'4 7.9
2018-Feb-17 20:30S 24°00' W 046°20'3 6.7
2018-Feb-17 20:00S 23°58' W 046°17'1 1.8
2018-Feb-17 19:27S 23°58' W 046°18'0 0.0
2018-Feb-17 18:57S 23°58' W 046°18'0 0.0
2018-Feb-17 18:30S 23°58' W 046°18'0 0.0
2018-Feb-17 18:00S 23°58' W 046°18'0 0.0
2018-Feb-17 17:30S 23°58' W 046°18'0 0.0
2018-Feb-17 17:00S 23°58' W 046°18'0 0.0
2018-Feb-17 16:30S 23°58' W 046°18'0 0.0
2018-Feb-17 16:00S 23°58' W 046°18'0 0.0
2018-Feb-17 15:30S 23°58' W 046°18'0 0.0
2018-Feb-17 15:00S 23°58' W 046°18'0 0.0
2018-Feb-17 14:30S 23°58' W 046°18'0 0.0
2018-Feb-17 14:00S 23°58' W 046°18'0 0.0
2018-Feb-17 13:29S 23°58' W 046°18'0 0.0
2018-Feb-17 12:59S 23°58' W 046°18'0 0.0
2018-Feb-17 12:30S 23°58' W 046°18'0 0.0
2018-Feb-17 12:00S 23°58' W 046°18'0 0.0
2018-Feb-17 11:30S 23°58' W 046°18'0 0.0
2018-Feb-17 11:00S 23°58' W 046°18'0 0.0
2018-Feb-17 10:30S 23°58' W 046°18'0 0.0
2018-Feb-17 10:00S 23°58' W 046°18'0 0.0
2018-Feb-17 09:30S 23°58' W 046°18'0 0.0
2018-Feb-17 09:00S 23°58' W 046°18'0 0.0
2018-Feb-17 08:30S 23°58' W 046°18'0 0.0
2018-Feb-17 08:00S 23°58' W 046°18'0 0.0
2018-Feb-17 07:30S 23°58' W 046°18'0 0.0
2018-Feb-17 07:00S 23°58' W 046°18'0 0.0
2018-Feb-17 06:30S 23°58' W 046°18'0 0.0
2018-Feb-17 05:58S 23°58' W 046°18'0 0.0
2018-Feb-17 05:30S 23°58' W 046°18'0 0.0
2018-Feb-17 05:00S 23°58' W 046°18'0 0.0
2018-Feb-17 04:30S 23°58' W 046°18'0 0.0
2018-Feb-17 04:00S 23°58' W 046°18'0 0.0
2018-Feb-17 03:30S 23°58' W 046°18'0 0.0
2018-Feb-17 03:00S 23°58' W 046°18'0 0.0
2018-Feb-17 02:30S 23°58' W 046°18'0 0.0
2018-Feb-17 01:56S 23°58' W 046°18'2 3.5
2018-Feb-17 01:30S 23°59' W 046°17'4 8.3
2018-Feb-17 01:00S 24°02' W 046°21'3 6.8
2018-Feb-17 00:30S 24°05' W 046°22'  

Dump ship's entire track history